sensor_id;sensor_type;location;lat;lon;timestamp;P1;durP1;ratioP1;P2;durP2;ratioP2
17987;SDS011;9119;50.932;5.342;2022-12-07T00:01:11;37.87;;;17.10;;
17987;SDS011;9119;50.932;5.342;2022-12-07T00:03:38;39.97;;;18.50;;
17987;SDS011;9119;50.932;5.342;2022-12-07T00:06:05;37.70;;;19.63;;
17987;SDS011;9119;50.932;5.342;2022-12-07T00:08:33;42.60;;;17.80;;
17987;SDS011;9119;50.932;5.342;2022-12-07T00:13:31;39.20;;;19.00;;
17987;SDS011;9119;50.932;5.342;2022-12-07T00:16:05;41.17;;;19.33;;
17987;SDS011;9119;50.932;5.342;2022-12-07T00:18:32;39.30;;;18.63;;
17987;SDS011;9119;50.932;5.342;2022-12-07T00:21:05;34.70;;;18.43;;
17987;SDS011;9119;50.932;5.342;2022-12-07T00:23:35;40.30;;;19.33;;
17987;SDS011;9119;50.932;5.342;2022-12-07T00:26:07;41.17;;;18.97;;
17987;SDS011;9119;50.932;5.342;2022-12-07T00:28:35;35.93;;;18.70;;
17987;SDS011;9119;50.932;5.342;2022-12-07T00:31:05;40.20;;;19.73;;
17987;SDS011;9119;50.932;5.342;2022-12-07T00:33:33;35.97;;;18.97;;
17987;SDS011;9119;50.932;5.342;2022-12-07T00:36:00;40.13;;;20.20;;
17987;SDS011;9119;50.932;5.342;2022-12-07T00:38:30;41.83;;;19.97;;
17987;SDS011;9119;50.932;5.342;2022-12-07T00:40:58;40.57;;;20.23;;
17987;SDS011;9119;50.932;5.342;2022-12-07T00:43:26;41.77;;;19.47;;
17987;SDS011;9119;50.932;5.342;2022-12-07T00:45:52;36.63;;;19.47;;
17987;SDS011;9119;50.932;5.342;2022-12-07T00:48:19;36.20;;;19.87;;
17987;SDS011;9119;50.932;5.342;2022-12-07T00:50:45;47.13;;;21.13;;
17987;SDS011;9119;50.932;5.342;2022-12-07T00:53:11;41.03;;;20.73;;
17987;SDS011;9119;50.932;5.342;2022-12-07T00:55:37;45.27;;;20.27;;
17987;SDS011;9119;50.932;5.342;2022-12-07T00:58:03;43.73;;;20.67;;
17987;SDS011;9119;50.932;5.342;2022-12-07T01:00:29;37.70;;;19.63;;
17987;SDS011;9119;50.932;5.342;2022-12-07T01:02:55;37.00;;;18.80;;
17987;SDS011;9119;50.932;5.342;2022-12-07T01:05:21;38.37;;;18.60;;
17987;SDS011;9119;50.932;5.342;2022-12-07T01:07:46;41.30;;;19.90;;
17987;SDS011;9119;50.932;5.342;2022-12-07T01:10:12;39.77;;;19.57;;
17987;SDS011;9119;50.932;5.342;2022-12-07T01:12:39;42.37;;;20.60;;
17987;SDS011;9119;50.932;5.342;2022-12-07T01:15:06;43.20;;;21.20;;
17987;SDS011;9119;50.932;5.342;2022-12-07T01:17:33;39.87;;;20.40;;
17987;SDS011;9119;50.932;5.342;2022-12-07T01:19:59;44.53;;;21.17;;
17987;SDS011;9119;50.932;5.342;2022-12-07T01:22:25;39.67;;;19.90;;
17987;SDS011;9119;50.932;5.342;2022-12-07T01:24:51;43.20;;;20.27;;
17987;SDS011;9119;50.932;5.342;2022-12-07T01:27:17;36.70;;;19.60;;
17987;SDS011;9119;50.932;5.342;2022-12-07T01:29:42;38.87;;;19.90;;
17987;SDS011;9119;50.932;5.342;2022-12-07T01:32:08;40.77;;;21.20;;
17987;SDS011;9119;50.932;5.342;2022-12-07T01:34:34;41.50;;;19.57;;
17987;SDS011;9119;50.932;5.342;2022-12-07T01:36:59;37.93;;;19.00;;
17987;SDS011;9119;50.932;5.342;2022-12-07T01:39:25;38.77;;;19.83;;
17987;SDS011;9119;50.932;5.342;2022-12-07T01:41:51;39.90;;;19.23;;
17987;SDS011;9119;50.932;5.342;2022-12-07T01:44:20;41.00;;;19.40;;
17987;SDS011;9119;50.932;5.342;2022-12-07T01:46:54;39.47;;;19.77;;
17987;SDS011;9119;50.932;5.342;2022-12-07T01:54:45;39.50;;;20.17;;
17987;SDS011;9119;50.932;5.342;2022-12-07T01:57:13;42.77;;;19.17;;
17987;SDS011;9119;50.932;5.342;2022-12-07T01:59:41;42.53;;;18.87;;
17987;SDS011;9119;50.932;5.342;2022-12-07T02:02:10;38.03;;;19.07;;
17987;SDS011;9119;50.932;5.342;2022-12-07T02:04:43;34.40;;;19.73;;
17987;SDS011;9119;50.932;5.342;2022-12-07T02:07:10;34.00;;;18.90;;
17987;SDS011;9119;50.932;5.342;2022-12-07T02:09:35;39.77;;;19.23;;
17987;SDS011;9119;50.932;5.342;2022-12-07T02:12:01;41.07;;;20.13;;
17987;SDS011;9119;50.932;5.342;2022-12-07T02:14:28;41.07;;;19.27;;
17987;SDS011;9119;50.932;5.342;2022-12-07T02:21:52;40.90;;;19.87;;
17987;SDS011;9119;50.932;5.342;2022-12-07T02:32:57;38.67;;;20.03;;
17987;SDS011;9119;50.932;5.342;2022-12-07T02:35:43;40.30;;;19.77;;
17987;SDS011;9119;50.932;5.342;2022-12-07T02:38:17;41.97;;;20.40;;
17987;SDS011;9119;50.932;5.342;2022-12-07T02:40:51;40.40;;;19.60;;
17987;SDS011;9119;50.932;5.342;2022-12-07T02:43:24;43.20;;;20.37;;
17987;SDS011;9119;50.932;5.342;2022-12-07T02:45:53;37.87;;;20.20;;
17987;SDS011;9119;50.932;5.342;2022-12-07T02:48:23;45.30;;;21.37;;
17987;SDS011;9119;50.932;5.342;2022-12-07T02:50:51;41.43;;;21.87;;
17987;SDS011;9119;50.932;5.342;2022-12-07T02:53:34;37.90;;;19.10;;
17987;SDS011;9119;50.932;5.342;2022-12-07T02:56:07;41.93;;;20.93;;
17987;SDS011;9119;50.932;5.342;2022-12-07T03:01:37;47.03;;;22.23;;
17987;SDS011;9119;50.932;5.342;2022-12-07T03:07:00;45.80;;;22.90;;
17987;SDS011;9119;50.932;5.342;2022-12-07T03:09:37;45.27;;;21.67;;
17987;SDS011;9119;50.932;5.342;2022-12-07T03:12:11;43.90;;;23.03;;
17987;SDS011;9119;50.932;5.342;2022-12-07T03:14:45;44.37;;;23.00;;
17987;SDS011;9119;50.932;5.342;2022-12-07T03:17:17;44.87;;;23.13;;
17987;SDS011;9119;50.932;5.342;2022-12-07T03:19:48;49.67;;;22.73;;
17987;SDS011;9119;50.932;5.342;2022-12-07T03:22:16;43.30;;;23.73;;
17987;SDS011;9119;50.932;5.342;2022-12-07T03:24:51;44.77;;;24.43;;
17987;SDS011;9119;50.932;5.342;2022-12-07T03:27:21;48.03;;;23.93;;
17987;SDS011;9119;50.932;5.342;2022-12-07T03:29:50;49.07;;;24.17;;
17987;SDS011;9119;50.932;5.342;2022-12-07T03:32:23;48.90;;;23.97;;
17987;SDS011;9119;50.932;5.342;2022-12-07T03:35:01;46.47;;;25.27;;
17987;SDS011;9119;50.932;5.342;2022-12-07T03:37:37;49.47;;;25.43;;
17987;SDS011;9119;50.932;5.342;2022-12-07T03:43:04;55.70;;;26.60;;
17987;SDS011;9119;50.932;5.342;2022-12-07T03:45:37;49.93;;;26.37;;
17987;SDS011;9119;50.932;5.342;2022-12-07T03:48:13;50.10;;;24.73;;
17987;SDS011;9119;50.932;5.342;2022-12-07T03:51:06;49.07;;;25.93;;
17987;SDS011;9119;50.932;5.342;2022-12-07T03:53:47;48.80;;;24.97;;
17987;SDS011;9119;50.932;5.342;2022-12-07T03:56:23;56.30;;;25.27;;
17987;SDS011;9119;50.932;5.342;2022-12-07T03:58:50;52.57;;;26.53;;
17987;SDS011;9119;50.932;5.342;2022-12-07T04:01:17;52.30;;;26.67;;
17987;SDS011;9119;50.932;5.342;2022-12-07T04:03:43;50.27;;;25.23;;
17987;SDS011;9119;50.932;5.342;2022-12-07T04:06:09;50.23;;;26.50;;
17987;SDS011;9119;50.932;5.342;2022-12-07T04:08:34;52.37;;;26.90;;
17987;SDS011;9119;50.932;5.342;2022-12-07T04:11:00;55.33;;;26.17;;
17987;SDS011;9119;50.932;5.342;2022-12-07T04:13:26;53.10;;;25.23;;
17987;SDS011;9119;50.932;5.342;2022-12-07T04:15:52;50.67;;;26.10;;
17987;SDS011;9119;50.932;5.342;2022-12-07T04:18:17;51.57;;;27.10;;
17987;SDS011;9119;50.932;5.342;2022-12-07T04:20:43;55.77;;;27.00;;
17987;SDS011;9119;50.932;5.342;2022-12-07T04:23:10;49.07;;;27.17;;
17987;SDS011;9119;50.932;5.342;2022-12-07T04:25:36;54.67;;;26.93;;
17987;SDS011;9119;50.932;5.342;2022-12-07T04:28:01;53.17;;;26.73;;
17987;SDS011;9119;50.932;5.342;2022-12-07T04:30:27;53.30;;;27.03;;
17987;SDS011;9119;50.932;5.342;2022-12-07T04:32:53;53.27;;;26.27;;
17987;SDS011;9119;50.932;5.342;2022-12-07T04:35:18;59.80;;;28.33;;
17987;SDS011;9119;50.932;5.342;2022-12-07T04:37:44;58.50;;;27.37;;
17987;SDS011;9119;50.932;5.342;2022-12-07T04:40:10;62.47;;;28.43;;
17987;SDS011;9119;50.932;5.342;2022-12-07T04:42:37;62.00;;;27.60;;
17987;SDS011;9119;50.932;5.342;2022-12-07T04:45:03;58.17;;;28.43;;
17987;SDS011;9119;50.932;5.342;2022-12-07T04:47:29;59.80;;;29.10;;
17987;SDS011;9119;50.932;5.342;2022-12-07T04:49:55;59.93;;;29.77;;
17987;SDS011;9119;50.932;5.342;2022-12-07T04:52:21;56.13;;;27.77;;
17987;SDS011;9119;50.932;5.342;2022-12-07T04:54:46;62.93;;;29.30;;
17987;SDS011;9119;50.932;5.342;2022-12-07T04:57:18;60.50;;;28.77;;
17987;SDS011;9119;50.932;5.342;2022-12-07T04:59:44;61.47;;;29.27;;
17987;SDS011;9119;50.932;5.342;2022-12-07T05:02:09;54.80;;;27.97;;
17987;SDS011;9119;50.932;5.342;2022-12-07T05:04:35;62.20;;;29.23;;
17987;SDS011;9119;50.932;5.342;2022-12-07T05:07:01;56.03;;;28.90;;
17987;SDS011;9119;50.932;5.342;2022-12-07T05:09:26;66.37;;;29.10;;
17987;SDS011;9119;50.932;5.342;2022-12-07T05:11:52;55.10;;;26.80;;
17987;SDS011;9119;50.932;5.342;2022-12-07T05:14:18;54.90;;;28.60;;
17987;SDS011;9119;50.932;5.342;2022-12-07T05:16:46;53.50;;;29.07;;
17987;SDS011;9119;50.932;5.342;2022-12-07T05:19:13;57.77;;;28.67;;
17987;SDS011;9119;50.932;5.342;2022-12-07T05:21:39;55.23;;;29.13;;
17987;SDS011;9119;50.932;5.342;2022-12-07T05:24:05;61.07;;;30.50;;
17987;SDS011;9119;50.932;5.342;2022-12-07T05:26:32;59.37;;;29.27;;
17987;SDS011;9119;50.932;5.342;2022-12-07T05:28:59;65.70;;;31.20;;
17987;SDS011;9119;50.932;5.342;2022-12-07T05:31:26;58.07;;;30.77;;
17987;SDS011;9119;50.932;5.342;2022-12-07T05:33:52;59.30;;;29.80;;
17987;SDS011;9119;50.932;5.342;2022-12-07T05:36:18;68.53;;;31.53;;
17987;SDS011;9119;50.932;5.342;2022-12-07T05:38:44;62.33;;;30.03;;
17987;SDS011;9119;50.932;5.342;2022-12-07T05:41:11;60.83;;;29.73;;
17987;SDS011;9119;50.932;5.342;2022-12-07T05:43:58;57.50;;;29.90;;
17987;SDS011;9119;50.932;5.342;2022-12-07T05:46:24;58.47;;;30.67;;
17987;SDS011;9119;50.932;5.342;2022-12-07T05:48:50;56.20;;;28.63;;
17987;SDS011;9119;50.932;5.342;2022-12-07T05:51:16;62.57;;;29.77;;
17987;SDS011;9119;50.932;5.342;2022-12-07T05:53:42;55.90;;;28.77;;
17987;SDS011;9119;50.932;5.342;2022-12-07T05:56:07;49.93;;;28.20;;
17987;SDS011;9119;50.932;5.342;2022-12-07T05:58:33;57.03;;;28.93;;
17987;SDS011;9119;50.932;5.342;2022-12-07T06:01:17;56.63;;;28.60;;
17987;SDS011;9119;50.932;5.342;2022-12-07T06:03:43;57.33;;;28.10;;
17987;SDS011;9119;50.932;5.342;2022-12-07T06:06:09;52.07;;;26.63;;
17987;SDS011;9119;50.932;5.342;2022-12-07T06:08:35;55.10;;;26.97;;
17987;SDS011;9119;50.932;5.342;2022-12-07T06:11:01;62.83;;;27.67;;
17987;SDS011;9119;50.932;5.342;2022-12-07T06:13:45;56.20;;;26.50;;
17987;SDS011;9119;50.932;5.342;2022-12-07T06:16:10;46.70;;;26.37;;
17987;SDS011;9119;50.932;5.342;2022-12-07T06:18:36;49.90;;;25.77;;
17987;SDS011;9119;50.932;5.342;2022-12-07T06:21:02;53.57;;;26.77;;
17987;SDS011;9119;50.932;5.342;2022-12-07T06:23:28;51.87;;;25.93;;
17987;SDS011;9119;50.932;5.342;2022-12-07T06:25:53;55.10;;;27.00;;
17987;SDS011;9119;50.932;5.342;2022-12-07T06:28:19;54.90;;;27.13;;
17987;SDS011;9119;50.932;5.342;2022-12-07T06:30:44;53.63;;;26.60;;
17987;SDS011;9119;50.932;5.342;2022-12-07T06:33:10;61.63;;;29.37;;
17987;SDS011;9119;50.932;5.342;2022-12-07T06:35:36;50.23;;;25.63;;
17987;SDS011;9119;50.932;5.342;2022-12-07T06:38:02;54.10;;;26.60;;
17987;SDS011;9119;50.932;5.342;2022-12-07T06:40:27;51.03;;;26.37;;
17987;SDS011;9119;50.932;5.342;2022-12-07T06:42:53;52.33;;;26.50;;
17987;SDS011;9119;50.932;5.342;2022-12-07T06:45:19;51.27;;;26.20;;
17987;SDS011;9119;50.932;5.342;2022-12-07T06:47:44;51.90;;;25.70;;
17987;SDS011;9119;50.932;5.342;2022-12-07T06:50:10;47.40;;;25.87;;
17987;SDS011;9119;50.932;5.342;2022-12-07T06:52:36;54.23;;;27.10;;
17987;SDS011;9119;50.932;5.342;2022-12-07T06:55:01;52.37;;;26.50;;
17987;SDS011;9119;50.932;5.342;2022-12-07T06:57:27;55.80;;;26.77;;
17987;SDS011;9119;50.932;5.342;2022-12-07T06:59:53;54.97;;;25.77;;
17987;SDS011;9119;50.932;5.342;2022-12-07T07:02:18;50.93;;;26.87;;
17987;SDS011;9119;50.932;5.342;2022-12-07T07:04:44;53.50;;;27.17;;
17987;SDS011;9119;50.932;5.342;2022-12-07T07:07:10;60.47;;;26.70;;
17987;SDS011;9119;50.932;5.342;2022-12-07T07:09:35;56.03;;;26.53;;
17987;SDS011;9119;50.932;5.342;2022-12-07T07:12:01;58.50;;;26.57;;
17987;SDS011;9119;50.932;5.342;2022-12-07T07:14:27;48.80;;;25.73;;
17987;SDS011;9119;50.932;5.342;2022-12-07T07:16:53;52.20;;;27.30;;
17987;SDS011;9119;50.932;5.342;2022-12-07T07:19:18;54.40;;;26.53;;
17987;SDS011;9119;50.932;5.342;2022-12-07T07:21:44;61.07;;;27.77;;
17987;SDS011;9119;50.932;5.342;2022-12-07T07:24:10;52.97;;;27.10;;
17987;SDS011;9119;50.932;5.342;2022-12-07T07:26:35;51.77;;;27.03;;
17987;SDS011;9119;50.932;5.342;2022-12-07T07:29:01;58.30;;;27.40;;
17987;SDS011;9119;50.932;5.342;2022-12-07T07:31:27;56.73;;;26.37;;
17987;SDS011;9119;50.932;5.342;2022-12-07T07:33:52;53.03;;;26.30;;
17987;SDS011;9119;50.932;5.342;2022-12-07T07:36:18;52.30;;;26.80;;
17987;SDS011;9119;50.932;5.342;2022-12-07T07:38:44;55.03;;;26.20;;
17987;SDS011;9119;50.932;5.342;2022-12-07T07:41:09;53.97;;;27.37;;
17987;SDS011;9119;50.932;5.342;2022-12-07T07:43:35;52.50;;;26.77;;
17987;SDS011;9119;50.932;5.342;2022-12-07T07:46:01;54.63;;;25.87;;
17987;SDS011;9119;50.932;5.342;2022-12-07T07:48:26;55.83;;;26.10;;
17987;SDS011;9119;50.932;5.342;2022-12-07T07:50:52;56.63;;;25.40;;
17987;SDS011;9119;50.932;5.342;2022-12-07T07:53:18;51.00;;;25.80;;
17987;SDS011;9119;50.932;5.342;2022-12-07T07:55:50;55.20;;;27.17;;
17987;SDS011;9119;50.932;5.342;2022-12-07T07:58:17;57.93;;;27.47;;
17987;SDS011;9119;50.932;5.342;2022-12-07T08:00:43;50.20;;;25.53;;
17987;SDS011;9119;50.932;5.342;2022-12-07T08:03:08;55.20;;;26.40;;
17987;SDS011;9119;50.932;5.342;2022-12-07T08:05:36;52.73;;;25.53;;
17987;SDS011;9119;50.932;5.342;2022-12-07T08:08:02;54.50;;;26.40;;
17987;SDS011;9119;50.932;5.342;2022-12-07T08:10:28;60.77;;;26.57;;
17987;SDS011;9119;50.932;5.342;2022-12-07T08:12:54;58.83;;;27.23;;
17987;SDS011;9119;50.932;5.342;2022-12-07T08:15:41;57.13;;;25.80;;
17987;SDS011;9119;50.932;5.342;2022-12-07T08:18:10;54.53;;;27.07;;
17987;SDS011;9119;50.932;5.342;2022-12-07T08:20:37;51.33;;;25.83;;
17987;SDS011;9119;50.932;5.342;2022-12-07T08:23:04;51.20;;;27.23;;
17987;SDS011;9119;50.932;5.342;2022-12-07T08:25:31;51.07;;;26.07;;
17987;SDS011;9119;50.932;5.342;2022-12-07T08:27:58;52.37;;;25.93;;
17987;SDS011;9119;50.932;5.342;2022-12-07T08:30:24;54.47;;;25.67;;
17987;SDS011;9119;50.932;5.342;2022-12-07T08:32:49;56.80;;;25.60;;
17987;SDS011;9119;50.932;5.342;2022-12-07T08:35:15;50.10;;;24.40;;
17987;SDS011;9119;50.932;5.342;2022-12-07T08:37:41;50.23;;;24.27;;
17987;SDS011;9119;50.932;5.342;2022-12-07T08:40:07;53.67;;;25.20;;
17987;SDS011;9119;50.932;5.342;2022-12-07T08:42:35;54.97;;;25.13;;
17987;SDS011;9119;50.932;5.342;2022-12-07T08:45:06;51.70;;;25.50;;
17987;SDS011;9119;50.932;5.342;2022-12-07T08:47:37;49.23;;;25.63;;
17987;SDS011;9119;50.932;5.342;2022-12-07T08:50:09;48.50;;;24.13;;
17987;SDS011;9119;50.932;5.342;2022-12-07T08:52:36;50.77;;;23.20;;
17987;SDS011;9119;50.932;5.342;2022-12-07T08:55:03;45.67;;;23.03;;
17987;SDS011;9119;50.932;5.342;2022-12-07T08:57:30;45.70;;;22.47;;
17987;SDS011;9119;50.932;5.342;2022-12-07T08:59:58;50.60;;;22.57;;
17987;SDS011;9119;50.932;5.342;2022-12-07T09:02:24;46.87;;;22.17;;
17987;SDS011;9119;50.932;5.342;2022-12-07T09:04:52;43.77;;;22.20;;
17987;SDS011;9119;50.932;5.342;2022-12-07T09:07:18;38.97;;;20.20;;
17987;SDS011;9119;50.932;5.342;2022-12-07T09:09:43;41.53;;;20.03;;
17987;SDS011;9119;50.932;5.342;2022-12-07T09:12:09;44.83;;;20.60;;
17987;SDS011;9119;50.932;5.342;2022-12-07T09:14:35;38.47;;;20.10;;
17987;SDS011;9119;50.932;5.342;2022-12-07T09:17:05;38.40;;;19.43;;
17987;SDS011;9119;50.932;5.342;2022-12-07T09:19:35;43.87;;;20.27;;
17987;SDS011;9119;50.932;5.342;2022-12-07T09:22:01;41.00;;;19.13;;
17987;SDS011;9119;50.932;5.342;2022-12-07T09:24:27;39.47;;;18.20;;
17987;SDS011;9119;50.932;5.342;2022-12-07T09:26:53;31.83;;;17.43;;
17987;SDS011;9119;50.932;5.342;2022-12-07T09:29:18;36.23;;;17.63;;
17987;SDS011;9119;50.932;5.342;2022-12-07T09:31:44;37.50;;;18.13;;
17987;SDS011;9119;50.932;5.342;2022-12-07T09:34:10;36.13;;;16.67;;
17987;SDS011;9119;50.932;5.342;2022-12-07T09:36:36;34.80;;;16.03;;
17987;SDS011;9119;50.932;5.342;2022-12-07T09:39:01;28.43;;;15.80;;
17987;SDS011;9119;50.932;5.342;2022-12-07T09:41:29;41.03;;;16.10;;
17987;SDS011;9119;50.932;5.342;2022-12-07T09:44:06;33.03;;;15.67;;
17987;SDS011;9119;50.932;5.342;2022-12-07T09:46:59;34.10;;;14.27;;
17987;SDS011;9119;50.932;5.342;2022-12-07T09:49:27;32.93;;;13.97;;
17987;SDS011;9119;50.932;5.342;2022-12-07T09:52:00;30.27;;;12.93;;
17987;SDS011;9119;50.932;5.342;2022-12-07T09:54:28;42.80;;;19.23;;
17987;SDS011;9119;50.932;5.342;2022-12-07T09:56:55;24.27;;;13.30;;
17987;SDS011;9119;50.932;5.342;2022-12-07T09:59:21;23.03;;;11.80;;
17987;SDS011;9119;50.932;5.342;2022-12-07T10:01:48;22.53;;;12.17;;
17987;SDS011;9119;50.932;5.342;2022-12-07T10:04:21;29.77;;;14.80;;
17987;SDS011;9119;50.932;5.342;2022-12-07T10:06:49;33.83;;;15.10;;
17987;SDS011;9119;50.932;5.342;2022-12-07T10:09:17;25.77;;;11.57;;
17987;SDS011;9119;50.932;5.342;2022-12-07T10:12:01;21.57;;;10.57;;
17987;SDS011;9119;50.932;5.342;2022-12-07T10:14:28;17.57;;;9.97;;
17987;SDS011;9119;50.932;5.342;2022-12-07T10:16:55;21.17;;;9.90;;
17987;SDS011;9119;50.932;5.342;2022-12-07T10:19:29;22.90;;;9.33;;
17987;SDS011;9119;50.932;5.342;2022-12-07T10:24:39;13.07;;;7.37;;
17987;SDS011;9119;50.932;5.342;2022-12-07T10:27:22;20.23;;;8.73;;
17987;SDS011;9119;50.932;5.342;2022-12-07T10:29:54;20.43;;;8.27;;
17987;SDS011;9119;50.932;5.342;2022-12-07T10:37:53;20.13;;;9.23;;
17987;SDS011;9119;50.932;5.342;2022-12-07T10:40:25;25.10;;;9.60;;
17987;SDS011;9119;50.932;5.342;2022-12-07T10:46:10;19.03;;;9.33;;
17987;SDS011;9119;50.932;5.342;2022-12-07T10:54:27;28.17;;;10.10;;
17987;SDS011;9119;50.932;5.342;2022-12-07T10:57:07;20.37;;;10.00;;
17987;SDS011;9119;50.932;5.342;2022-12-07T10:59:41;19.80;;;10.63;;
17987;SDS011;9119;50.932;5.342;2022-12-07T11:16:00;19.87;;;9.03;;
17987;SDS011;9119;50.932;5.342;2022-12-07T11:24:16;24.67;;;10.43;;
17987;SDS011;9119;50.932;5.342;2022-12-07T11:37:23;20.87;;;8.73;;
17987;SDS011;9119;50.932;5.342;2022-12-07T11:40:11;23.90;;;9.77;;
17987;SDS011;9119;50.932;5.342;2022-12-07T11:42:51;22.10;;;8.13;;
17987;SDS011;9119;50.932;5.342;2022-12-07T11:45:24;19.10;;;7.63;;
17987;SDS011;9119;50.932;5.342;2022-12-07T11:48:00;25.47;;;10.50;;
17987;SDS011;9119;50.932;5.342;2022-12-07T11:53:18;18.17;;;6.43;;
17987;SDS011;9119;50.932;5.342;2022-12-07T12:03:45;20.90;;;6.30;;
17987;SDS011;9119;50.932;5.342;2022-12-07T12:06:13;12.07;;;5.70;;
17987;SDS011;9119;50.932;5.342;2022-12-07T12:11:31;11.93;;;6.33;;
17987;SDS011;9119;50.932;5.342;2022-12-07T12:21:53;15.67;;;5.90;;
17987;SDS011;9119;50.932;5.342;2022-12-07T12:24:26;24.47;;;6.73;;
17987;SDS011;9119;50.932;5.342;2022-12-07T12:26:56;17.30;;;6.23;;
17987;SDS011;9119;50.932;5.342;2022-12-07T12:29:32;21.67;;;7.53;;
17987;SDS011;9119;50.932;5.342;2022-12-07T12:37:52;20.00;;;5.90;;
17987;SDS011;9119;50.932;5.342;2022-12-07T12:42:53;17.13;;;5.33;;
17987;SDS011;9119;50.932;5.342;2022-12-07T12:45:24;12.83;;;5.70;;
17987;SDS011;9119;50.932;5.342;2022-12-07T12:48:01;14.47;;;5.60;;
17987;SDS011;9119;50.932;5.342;2022-12-07T12:50:47;15.40;;;5.40;;
17987;SDS011;9119;50.932;5.342;2022-12-07T12:53:21;24.17;;;6.33;;
17987;SDS011;9119;50.932;5.342;2022-12-07T12:56:14;16.40;;;5.50;;
17987;SDS011;9119;50.932;5.342;2022-12-07T12:58:47;16.00;;;5.30;;
17987;SDS011;9119;50.932;5.342;2022-12-07T13:04:00;11.67;;;4.37;;
17987;SDS011;9119;50.932;5.342;2022-12-07T13:08:53;11.03;;;3.53;;
17987;SDS011;9119;50.932;5.342;2022-12-07T13:11:28;9.50;;;3.43;;
17987;SDS011;9119;50.932;5.342;2022-12-07T13:17:02;10.03;;;4.10;;
17987;SDS011;9119;50.932;5.342;2022-12-07T13:28:02;14.33;;;4.17;;
17987;SDS011;9119;50.932;5.342;2022-12-07T13:30:39;14.90;;;3.93;;
17987;SDS011;9119;50.932;5.342;2022-12-07T13:33:32;15.83;;;4.33;;
17987;SDS011;9119;50.932;5.342;2022-12-07T13:36:00;13.67;;;3.87;;
17987;SDS011;9119;50.932;5.342;2022-12-07T13:41:03;9.03;;;3.43;;
17987;SDS011;9119;50.932;5.342;2022-12-07T13:43:45;10.10;;;2.93;;
17987;SDS011;9119;50.932;5.342;2022-12-07T13:46:15;7.43;;;3.67;;
17987;SDS011;9119;50.932;5.342;2022-12-07T13:51:21;7.67;;;3.17;;
17987;SDS011;9119;50.932;5.342;2022-12-07T13:53:55;10.43;;;3.40;;
17987;SDS011;9119;50.932;5.342;2022-12-07T13:56:26;13.03;;;4.30;;
17987;SDS011;9119;50.932;5.342;2022-12-07T13:58:57;10.80;;;3.30;;
17987;SDS011;9119;50.932;5.342;2022-12-07T14:01:23;13.60;;;2.80;;
17987;SDS011;9119;50.932;5.342;2022-12-07T14:03:50;10.70;;;4.03;;
17987;SDS011;9119;50.932;5.342;2022-12-07T14:06:23;14.60;;;4.03;;
17987;SDS011;9119;50.932;5.342;2022-12-07T14:09:05;12.03;;;4.50;;
17987;SDS011;9119;50.932;5.342;2022-12-07T14:11:41;11.50;;;3.70;;
17987;SDS011;9119;50.932;5.342;2022-12-07T14:14:10;12.40;;;3.57;;
17987;SDS011;9119;50.932;5.342;2022-12-07T14:16:55;10.87;;;4.40;;
17987;SDS011;9119;50.932;5.342;2022-12-07T14:19:59;18.90;;;5.07;;
17987;SDS011;9119;50.932;5.342;2022-12-07T14:22:27;10.47;;;4.90;;
17987;SDS011;9119;50.932;5.342;2022-12-07T14:27:29;15.93;;;5.63;;
17987;SDS011;9119;50.932;5.342;2022-12-07T14:29:59;15.83;;;6.30;;
17987;SDS011;9119;50.932;5.342;2022-12-07T14:32:27;16.17;;;6.33;;
17987;SDS011;9119;50.932;5.342;2022-12-07T14:37:23;15.63;;;6.00;;
17987;SDS011;9119;50.932;5.342;2022-12-07T14:39:49;19.43;;;6.33;;
17987;SDS011;9119;50.932;5.342;2022-12-07T14:42:15;16.50;;;7.07;;
17987;SDS011;9119;50.932;5.342;2022-12-07T14:44:42;12.33;;;6.20;;
17987;SDS011;9119;50.932;5.342;2022-12-07T14:47:09;24.17;;;7.17;;
17987;SDS011;9119;50.932;5.342;2022-12-07T14:49:35;15.60;;;6.57;;
17987;SDS011;9119;50.932;5.342;2022-12-07T14:52:01;20.03;;;6.90;;
17987;SDS011;9119;50.932;5.342;2022-12-07T14:54:29;18.27;;;7.07;;
17987;SDS011;9119;50.932;5.342;2022-12-07T14:56:57;20.63;;;7.13;;
17987;SDS011;9119;50.932;5.342;2022-12-07T14:59:23;19.30;;;6.93;;
17987;SDS011;9119;50.932;5.342;2022-12-07T15:01:49;22.40;;;7.63;;
17987;SDS011;9119;50.932;5.342;2022-12-07T15:04:15;14.50;;;7.93;;
17987;SDS011;9119;50.932;5.342;2022-12-07T15:06:40;14.40;;;6.53;;
17987;SDS011;9119;50.932;5.342;2022-12-07T15:09:09;17.23;;;6.63;;
17987;SDS011;9119;50.932;5.342;2022-12-07T15:11:36;15.57;;;6.20;;
17987;SDS011;9119;50.932;5.342;2022-12-07T15:14:02;13.20;;;6.20;;
17987;SDS011;9119;50.932;5.342;2022-12-07T15:16:34;17.67;;;7.43;;
17987;SDS011;9119;50.932;5.342;2022-12-07T15:19:01;15.40;;;6.70;;
17987;SDS011;9119;50.932;5.342;2022-12-07T15:21:27;18.53;;;8.47;;
17987;SDS011;9119;50.932;5.342;2022-12-07T15:23:53;21.07;;;7.37;;
17987;SDS011;9119;50.932;5.342;2022-12-07T15:26:18;16.60;;;7.60;;
17987;SDS011;9119;50.932;5.342;2022-12-07T15:28:44;23.13;;;8.50;;
17987;SDS011;9119;50.932;5.342;2022-12-07T15:31:11;20.13;;;7.43;;
17987;SDS011;9119;50.932;5.342;2022-12-07T15:33:38;19.03;;;8.90;;
17987;SDS011;9119;50.932;5.342;2022-12-07T15:36:03;18.40;;;8.57;;
17987;SDS011;9119;50.932;5.342;2022-12-07T15:38:29;19.23;;;8.83;;
17987;SDS011;9119;50.932;5.342;2022-12-07T15:40:55;14.77;;;8.37;;
17987;SDS011;9119;50.932;5.342;2022-12-07T15:43:21;19.40;;;8.10;;
17987;SDS011;9119;50.932;5.342;2022-12-07T15:46:06;14.00;;;7.27;;
17987;SDS011;9119;50.932;5.342;2022-12-07T15:48:31;21.83;;;9.87;;
17987;SDS011;9119;50.932;5.342;2022-12-07T15:51:04;20.23;;;9.07;;
17987;SDS011;9119;50.932;5.342;2022-12-07T15:53:34;18.50;;;7.53;;
17987;SDS011;9119;50.932;5.342;2022-12-07T15:56:00;18.63;;;7.73;;
17987;SDS011;9119;50.932;5.342;2022-12-07T15:58:30;19.20;;;8.40;;
17987;SDS011;9119;50.932;5.342;2022-12-07T16:00:56;13.07;;;6.23;;
17987;SDS011;9119;50.932;5.342;2022-12-07T16:03:22;15.07;;;6.53;;
17987;SDS011;9119;50.932;5.342;2022-12-07T16:05:48;11.33;;;6.03;;
17987;SDS011;9119;50.932;5.342;2022-12-07T16:08:15;14.47;;;5.43;;
17987;SDS011;9119;50.932;5.342;2022-12-07T16:10:40;15.03;;;5.90;;
17987;SDS011;9119;50.932;5.342;2022-12-07T16:13:09;8.77;;;5.03;;
17987;SDS011;9119;50.932;5.342;2022-12-07T16:15:39;12.33;;;5.00;;
17987;SDS011;9119;50.932;5.342;2022-12-07T16:18:06;7.07;;;4.63;;
17987;SDS011;9119;50.932;5.342;2022-12-07T16:20:31;10.73;;;4.40;;
17987;SDS011;9119;50.932;5.342;2022-12-07T16:22:57;9.10;;;4.50;;
17987;SDS011;9119;50.932;5.342;2022-12-07T16:25:23;9.53;;;4.33;;
17987;SDS011;9119;50.932;5.342;2022-12-07T16:27:50;10.77;;;4.70;;
17987;SDS011;9119;50.932;5.342;2022-12-07T16:30:16;13.53;;;5.50;;
17987;SDS011;9119;50.932;5.342;2022-12-07T16:32:42;10.00;;;5.60;;
17987;SDS011;9119;50.932;5.342;2022-12-07T16:35:08;10.30;;;5.67;;
17987;SDS011;9119;50.932;5.342;2022-12-07T16:37:34;13.80;;;5.97;;
17987;SDS011;9119;50.932;5.342;2022-12-07T16:40:00;17.37;;;6.60;;
17987;SDS011;9119;50.932;5.342;2022-12-07T16:42:26;12.17;;;6.13;;
17987;SDS011;9119;50.932;5.342;2022-12-07T16:44:56;11.60;;;6.33;;
17987;SDS011;9119;50.932;5.342;2022-12-07T16:47:21;15.37;;;6.40;;
17987;SDS011;9119;50.932;5.342;2022-12-07T16:49:47;15.03;;;7.03;;
17987;SDS011;9119;50.932;5.342;2022-12-07T16:52:13;14.13;;;6.60;;
17987;SDS011;9119;50.932;5.342;2022-12-07T16:54:38;14.53;;;6.93;;
17987;SDS011;9119;50.932;5.342;2022-12-07T16:57:04;17.77;;;7.57;;
17987;SDS011;9119;50.932;5.342;2022-12-07T16:59:30;13.27;;;6.97;;
17987;SDS011;9119;50.932;5.342;2022-12-07T17:01:58;14.40;;;7.67;;